Canisteo, New York
Current Conditions -  °F | °C
As of 5:14 AM on Tuesday 27 Jan 2015 (Local Time) from KDSV Reporting Station
Light Snow Light Snow  
Wind Chill:   Ceiling: 2000
Heat Index: 17°   Visibility: 5mi
Dew Point: 13°   Wind: 7mph
Humidity: 84%   Direction: 340°NNW
Pressure: 29.9"   Gusts: NA
Location:  42.27°N, 77.61°W
Report Text: KDSV 271014Z AUTO 34006KT 5SM -SN BR BKN020 OVC034 M08/M11 A2990 RMK AO2 P0000 T10831106
Loading
Personal Weather Stations






























Interactive Weather Map New forecast layout! Learn more

10-Day Weather Forecast

Advertisements
Track Severe Weather on mobile